• Join FlightAware (Why Join?)
  • Login
  • US Flag 
05:16PM EDT


 

Airport Tracker/Info


-or-


 

Live Flight TrackerFlight Track Log ✈ DAL6115 ✈ 06-Apr-2013 ✈ KTVC - KDTW

Flight Track Log - Related Links

Times and Time Zones

All times are in EDT time to prevent confusion due to time zone crossing. See the DAL6115 flight status page for this flight to view local times or setup timezone preferences in your user account.

Time Position Orientation Groundspeed Altitude Reporting Facility
EDT Latitude Longitude Course Direction KTS MPH feet Rate Location/Type
01:58PM 44.7244 -85.4589 109° East 202 232 4,200  Level Minneapolis Center
01:59PM 44.6753 -85.4000 140° Southeast 224 258 6,200 2,280 Climbing Minneapolis Center
02:00PM 44.6044 -85.3183 141° Southeast 259 298 9,000 2,520 Climbing Minneapolis Center
02:01PM 44.5442 -85.2472 140° Southeast 279 321 11,600 2,280 Climbing Minneapolis Center
02:02PM 44.3958 -85.2034 134° Southeast  Level FlightAware Approximate
02:02PM 44.4819 -85.1742 140° Southeast 287 330 13,700  Level Minneapolis Center
02:03PM 44.4169 -85.0969 140° Southeast 299 344 15,700 1,920 Climbing Minneapolis Center
02:04PM 44.3506 -85.0189 140° Southeast 310 357 17,700 1,560 Climbing Minneapolis Center
02:05PM 44.2806 -84.9381 140° Southeast 321 369 19,000 600 Climbing Minneapolis Center
02:06PM 44.2164 -84.8622 140° Southeast 355 409 19,000  Level Minneapolis Center
02:07PM 44.0908 -84.7164 140° Southeast 413 475 19,000  Level Minneapolis Center
02:08PM 44.0022 -84.6153 141° Southeast 429 494 19,000  Level Minneapolis Center
02:09PM 43.9200 -84.5189 140° Southeast 421 484 19,000  Level Minneapolis Center
02:10PM 43.8281 -84.4142 141° Southeast 424 488 19,000  Level Minneapolis Center
02:11PM 43.7178 -84.2869 140° Southeast 428 493 19,000  Level Minneapolis Center
02:12PM 43.6256 -84.1817 140° Southeast 429 494 19,000  Level Minneapolis Center
02:13PM 43.5831 -84.1369 143° Southeast 437 503 19,000  Level Cleveland Center
02:14PM 43.4811 -84.0653 153° Southeast 429 494 19,000  Level Cleveland Center
02:15PM 43.3722 -84.0106 160° South 416 479 19,000  Level Cleveland Center
02:16PM 43.2633 -83.9558 160° South 416 479 19,000 -780 Level Cleveland Center
02:17PM 43.1567 -83.9017 160° South 416 479 17,500 -1,740 Descending Cleveland Center
02:18PM 43.0581 -83.8511 159° South 404 465 15,600 -2,040 Descending Cleveland Center
02:19PM 42.9758 -83.8097 160° South 352 405 13,900 -1,740 Descending Cleveland Center
02:20PM 42.8811 -83.7594 159° South 348 400 12,200 -900 Descending Cleveland Center
02:21PM 42.8053 -83.7189 159° South 311 358 12,000 -900 Descending Cleveland Center
02:22PM 42.7333 -83.6758 156° South 296 341 10,500 -1,620 Descending Cleveland Center
02:23PM 42.6594 -83.6297 155° Southeast 285 328 8,900 -1,620 Descending Cleveland Center
02:24PM 42.6136 -83.5542 129° Southeast 276 318 7,600 -1,380 Descending Cleveland Center
02:25PM 42.5594 -83.4725 132° Southeast 262 302 6,200 -780 Descending Cleveland Center
02:26PM 42.5111 -83.4000 132° Southeast 258 297 6,000 -540 Descending Cleveland Center
02:27PM 42.4606 -83.3414 139° Southeast 256 295 5,200 -900 Descending Cleveland Center
02:28PM 42.4050 -83.3081 156° South 209 241 4,300 -840 Descending Cleveland Center
02:29PM 42.3508 -83.3056 178° South 178 205 3,500 -900 Descending Cleveland Center
02:30PM 42.3025 -83.3206 193° South 167 192 2,500 -960 Descending Cleveland Center
02:31PM 42.2686 -83.3386 202° Southwest 138 159 1,700 -840 Descending Cleveland Center
02:32PM 42.2264 -83.3650 205° Southwest 136 157 800 -780 Descending Cleveland Center